sensor_id;sensor_type;location;lat;lon;timestamp;P1;durP1;ratioP1;P2;durP2;ratioP2
28844;SDS011;15976;47.938;7.758;2023-04-06T00:01:01;7.93;;;5.30;;
28844;SDS011;15976;47.938;7.758;2023-04-06T00:03:28;6.45;;;5.07;;
28844;SDS011;15976;47.938;7.758;2023-04-06T00:05:55;7.35;;;4.80;;
28844;SDS011;15976;47.938;7.758;2023-04-06T00:08:22;8.18;;;5.60;;
28844;SDS011;15976;47.938;7.758;2023-04-06T00:10:49;6.93;;;5.60;;
28844;SDS011;15976;47.938;7.758;2023-04-06T00:13:17;6.80;;;5.70;;
28844;SDS011;15976;47.938;7.758;2023-04-06T00:15:44;8.57;;;6.00;;
28844;SDS011;15976;47.938;7.758;2023-04-06T00:18:11;9.82;;;5.55;;
28844;SDS011;15976;47.938;7.758;2023-04-06T00:20:38;9.35;;;7.00;;
28844;SDS011;15976;47.938;7.758;2023-04-06T00:23:05;12.88;;;7.95;;
28844;SDS011;15976;47.938;7.758;2023-04-06T00:25:32;11.05;;;8.55;;
28844;SDS011;15976;47.938;7.758;2023-04-06T00:27:59;10.55;;;7.60;;
28844;SDS011;15976;47.938;7.758;2023-04-06T00:30:26;9.43;;;7.00;;
28844;SDS011;15976;47.938;7.758;2023-04-06T00:32:56;11.13;;;8.25;;
28844;SDS011;15976;47.938;7.758;2023-04-06T00:35:23;10.10;;;6.57;;
28844;SDS011;15976;47.938;7.758;2023-04-06T00:37:50;8.20;;;5.50;;
28844;SDS011;15976;47.938;7.758;2023-04-06T00:40:17;9.05;;;5.40;;
28844;SDS011;15976;47.938;7.758;2023-04-06T00:42:44;7.28;;;5.80;;
28844;SDS011;15976;47.938;7.758;2023-04-06T00:45:11;9.60;;;5.35;;
28844;SDS011;15976;47.938;7.758;2023-04-06T00:47:39;8.95;;;5.97;;
28844;SDS011;15976;47.938;7.758;2023-04-06T00:50:07;9.32;;;6.82;;
28844;SDS011;15976;47.938;7.758;2023-04-06T00:52:34;8.70;;;6.50;;
28844;SDS011;15976;47.938;7.758;2023-04-06T00:55:03;10.80;;;6.07;;
28844;SDS011;15976;47.938;7.758;2023-04-06T00:57:35;11.25;;;6.35;;
28844;SDS011;15976;47.938;7.758;2023-04-06T01:00:02;9.23;;;6.50;;
28844;SDS011;15976;47.938;7.758;2023-04-06T01:02:30;8.40;;;5.80;;
28844;SDS011;15976;47.938;7.758;2023-04-06T01:04:57;10.00;;;5.82;;
28844;SDS011;15976;47.938;7.758;2023-04-06T01:07:36;6.90;;;5.53;;
28844;SDS011;15976;47.938;7.758;2023-04-06T01:10:26;8.65;;;6.07;;
28844;SDS011;15976;47.938;7.758;2023-04-06T01:13:11;7.13;;;5.40;;
28844;SDS011;15976;47.938;7.758;2023-04-06T01:15:53;8.40;;;5.57;;
28844;SDS011;15976;47.938;7.758;2023-04-06T01:18:39;6.57;;;5.40;;
28844;SDS011;15976;47.938;7.758;2023-04-06T01:21:15;7.18;;;5.18;;
28844;SDS011;15976;47.938;7.758;2023-04-06T01:24:15;7.25;;;5.25;;
28844;SDS011;15976;47.938;7.758;2023-04-06T01:27:00;7.78;;;5.85;;
28844;SDS011;15976;47.938;7.758;2023-04-06T01:29:36;6.47;;;5.43;;
28844;SDS011;15976;47.938;7.758;2023-04-06T01:32:06;7.85;;;5.88;;
28844;SDS011;15976;47.938;7.758;2023-04-06T01:34:44;11.02;;;7.05;;
28844;SDS011;15976;47.938;7.758;2023-04-06T01:37:11;12.27;;;7.88;;
28844;SDS011;15976;47.938;7.758;2023-04-06T01:39:38;9.68;;;6.30;;
28844;SDS011;15976;47.938;7.758;2023-04-06T01:42:06;8.13;;;6.35;;
28844;SDS011;15976;47.938;7.758;2023-04-06T01:44:35;10.70;;;7.05;;
28844;SDS011;15976;47.938;7.758;2023-04-06T01:47:09;12.75;;;8.02;;
28844;SDS011;15976;47.938;7.758;2023-04-06T01:49:36;10.18;;;7.13;;
28844;SDS011;15976;47.938;7.758;2023-04-06T01:52:03;12.13;;;6.72;;
28844;SDS011;15976;47.938;7.758;2023-04-06T01:54:31;10.48;;;6.95;;
28844;SDS011;15976;47.938;7.758;2023-04-06T01:56:58;6.70;;;5.50;;
28844;SDS011;15976;47.938;7.758;2023-04-06T01:59:45;10.35;;;6.47;;
28844;SDS011;15976;47.938;7.758;2023-04-06T02:02:38;7.82;;;5.90;;
28844;SDS011;15976;47.938;7.758;2023-04-06T02:05:12;10.77;;;6.22;;
28844;SDS011;15976;47.938;7.758;2023-04-06T02:07:40;9.98;;;6.28;;
28844;SDS011;15976;47.938;7.758;2023-04-06T02:10:11;8.52;;;5.97;;
28844;SDS011;15976;47.938;7.758;2023-04-06T02:12:39;7.53;;;5.80;;
28844;SDS011;15976;47.938;7.758;2023-04-06T02:15:10;6.80;;;5.10;;
28844;SDS011;15976;47.938;7.758;2023-04-06T02:17:39;7.22;;;4.95;;
28844;SDS011;15976;47.938;7.758;2023-04-06T02:20:07;6.78;;;4.80;;
28844;SDS011;15976;47.938;7.758;2023-04-06T02:22:35;7.50;;;5.43;;
28844;SDS011;15976;47.938;7.758;2023-04-06T02:25:02;5.82;;;5.22;;
28844;SDS011;15976;47.938;7.758;2023-04-06T02:27:29;8.45;;;5.30;;
28844;SDS011;15976;47.938;7.758;2023-04-06T02:29:57;7.88;;;5.68;;
28844;SDS011;15976;47.938;7.758;2023-04-06T02:32:24;6.80;;;5.60;;
28844;SDS011;15976;47.938;7.758;2023-04-06T02:34:52;6.97;;;5.72;;
28844;SDS011;15976;47.938;7.758;2023-04-06T02:37:20;8.82;;;6.47;;
28844;SDS011;15976;47.938;7.758;2023-04-06T02:39:48;9.70;;;5.60;;
28844;SDS011;15976;47.938;7.758;2023-04-06T02:42:15;9.60;;;5.45;;
28844;SDS011;15976;47.938;7.758;2023-04-06T02:44:44;7.53;;;5.00;;
28844;SDS011;15976;47.938;7.758;2023-04-06T02:47:11;8.45;;;4.80;;
28844;SDS011;15976;47.938;7.758;2023-04-06T02:49:41;7.03;;;4.68;;
28844;SDS011;15976;47.938;7.758;2023-04-06T02:52:08;8.57;;;5.15;;
28844;SDS011;15976;47.938;7.758;2023-04-06T02:54:35;10.00;;;5.15;;
28844;SDS011;15976;47.938;7.758;2023-04-06T02:57:03;5.90;;;4.47;;
28844;SDS011;15976;47.938;7.758;2023-04-06T02:59:40;6.78;;;4.63;;
28844;SDS011;15976;47.938;7.758;2023-04-06T03:02:18;6.88;;;5.22;;
28844;SDS011;15976;47.938;7.758;2023-04-06T03:04:46;7.45;;;5.05;;
28844;SDS011;15976;47.938;7.758;2023-04-06T03:07:25;8.07;;;4.78;;
28844;SDS011;15976;47.938;7.758;2023-04-06T03:09:52;8.30;;;4.50;;
28844;SDS011;15976;47.938;7.758;2023-04-06T03:12:19;9.20;;;5.35;;
28844;SDS011;15976;47.938;7.758;2023-04-06T03:15:12;7.00;;;4.80;;
28844;SDS011;15976;47.938;7.758;2023-04-06T03:17:44;7.72;;;5.22;;
28844;SDS011;15976;47.938;7.758;2023-04-06T03:20:26;6.38;;;5.07;;
28844;SDS011;15976;47.938;7.758;2023-04-06T03:22:52;6.72;;;5.07;;
28844;SDS011;15976;47.938;7.758;2023-04-06T03:25:24;8.40;;;5.30;;
28844;SDS011;15976;47.938;7.758;2023-04-06T03:27:55;6.28;;;5.03;;
28844;SDS011;15976;47.938;7.758;2023-04-06T03:30:22;8.52;;;5.60;;
28844;SDS011;15976;47.938;7.758;2023-04-06T03:32:49;11.23;;;5.20;;
28844;SDS011;15976;47.938;7.758;2023-04-06T03:35:18;9.32;;;5.93;;
28844;SDS011;15976;47.938;7.758;2023-04-06T03:37:45;8.55;;;4.80;;
28844;SDS011;15976;47.938;7.758;2023-04-06T03:40:12;7.80;;;5.55;;
28844;SDS011;15976;47.938;7.758;2023-04-06T03:42:39;10.00;;;5.38;;
28844;SDS011;15976;47.938;7.758;2023-04-06T03:45:11;7.13;;;5.40;;
28844;SDS011;15976;47.938;7.758;2023-04-06T03:47:45;11.65;;;5.82;;
28844;SDS011;15976;47.938;7.758;2023-04-06T03:50:13;6.78;;;5.35;;
28844;SDS011;15976;47.938;7.758;2023-04-06T03:52:40;13.38;;;8.52;;
28844;SDS011;15976;47.938;7.758;2023-04-06T03:55:07;10.55;;;7.18;;
28844;SDS011;15976;47.938;7.758;2023-04-06T03:57:35;10.75;;;6.25;;
28844;SDS011;15976;47.938;7.758;2023-04-06T04:00:03;8.15;;;5.85;;
28844;SDS011;15976;47.938;7.758;2023-04-06T04:02:37;9.30;;;5.68;;
28844;SDS011;15976;47.938;7.758;2023-04-06T04:05:05;9.18;;;6.22;;
28844;SDS011;15976;47.938;7.758;2023-04-06T04:07:32;10.77;;;7.18;;
28844;SDS011;15976;47.938;7.758;2023-04-06T04:10:00;11.77;;;7.07;;
28844;SDS011;15976;47.938;7.758;2023-04-06T04:12:28;9.50;;;6.70;;
28844;SDS011;15976;47.938;7.758;2023-04-06T04:14:57;10.75;;;6.68;;
28844;SDS011;15976;47.938;7.758;2023-04-06T04:17:24;8.48;;;6.50;;
28844;SDS011;15976;47.938;7.758;2023-04-06T04:19:51;10.82;;;6.15;;
28844;SDS011;15976;47.938;7.758;2023-04-06T04:22:18;10.35;;;6.28;;
28844;SDS011;15976;47.938;7.758;2023-04-06T04:24:45;7.85;;;5.68;;
28844;SDS011;15976;47.938;7.758;2023-04-06T04:27:12;10.60;;;6.85;;
28844;SDS011;15976;47.938;7.758;2023-04-06T04:29:40;7.82;;;6.40;;
28844;SDS011;15976;47.938;7.758;2023-04-06T04:32:11;10.88;;;6.65;;
28844;SDS011;15976;47.938;7.758;2023-04-06T04:34:39;10.13;;;6.40;;
28844;SDS011;15976;47.938;7.758;2023-04-06T04:37:10;10.23;;;6.60;;
28844;SDS011;15976;47.938;7.758;2023-04-06T04:39:50;11.52;;;6.85;;
28844;SDS011;15976;47.938;7.758;2023-04-06T04:42:17;10.77;;;7.03;;
28844;SDS011;15976;47.938;7.758;2023-04-06T04:44:49;8.50;;;6.43;;
28844;SDS011;15976;47.938;7.758;2023-04-06T04:47:27;11.70;;;7.82;;
28844;SDS011;15976;47.938;7.758;2023-04-06T04:49:54;8.98;;;7.25;;
28844;SDS011;15976;47.938;7.758;2023-04-06T04:52:23;12.85;;;8.40;;
28844;SDS011;15976;47.938;7.758;2023-04-06T04:55:06;13.18;;;7.50;;
28844;SDS011;15976;47.938;7.758;2023-04-06T04:57:33;11.00;;;7.30;;
28844;SDS011;15976;47.938;7.758;2023-04-06T05:00:02;13.40;;;7.65;;
28844;SDS011;15976;47.938;7.758;2023-04-06T05:02:31;11.32;;;7.25;;
28844;SDS011;15976;47.938;7.758;2023-04-06T05:05:09;11.82;;;7.03;;
28844;SDS011;15976;47.938;7.758;2023-04-06T05:07:37;11.80;;;8.10;;
28844;SDS011;15976;47.938;7.758;2023-04-06T05:10:08;12.32;;;8.23;;
28844;SDS011;15976;47.938;7.758;2023-04-06T05:15:47;9.45;;;7.32;;
28844;SDS011;15976;47.938;7.758;2023-04-06T05:18:27;10.88;;;6.85;;
28844;SDS011;15976;47.938;7.758;2023-04-06T05:20:57;11.18;;;6.70;;
28844;SDS011;15976;47.938;7.758;2023-04-06T05:23:33;10.88;;;7.07;;
28844;SDS011;15976;47.938;7.758;2023-04-06T05:26:01;11.68;;;7.32;;
28844;SDS011;15976;47.938;7.758;2023-04-06T05:28:29;12.75;;;8.68;;
28844;SDS011;15976;47.938;7.758;2023-04-06T05:30:57;10.45;;;7.00;;
28844;SDS011;15976;47.938;7.758;2023-04-06T05:33:26;8.95;;;6.57;;
28844;SDS011;15976;47.938;7.758;2023-04-06T05:36:04;14.85;;;6.85;;
28844;SDS011;15976;47.938;7.758;2023-04-06T05:38:36;10.80;;;7.10;;
28844;SDS011;15976;47.938;7.758;2023-04-06T05:41:14;9.85;;;7.25;;
28844;SDS011;15976;47.938;7.758;2023-04-06T05:43:42;12.90;;;7.03;;
28844;SDS011;15976;47.938;7.758;2023-04-06T05:46:09;12.70;;;7.47;;
28844;SDS011;15976;47.938;7.758;2023-04-06T05:48:37;9.52;;;6.13;;
28844;SDS011;15976;47.938;7.758;2023-04-06T05:51:07;11.38;;;7.63;;
28844;SDS011;15976;47.938;7.758;2023-04-06T05:53:47;13.90;;;9.38;;
28844;SDS011;15976;47.938;7.758;2023-04-06T05:56:14;13.02;;;9.45;;
28844;SDS011;15976;47.938;7.758;2023-04-06T05:58:42;11.40;;;8.30;;
28844;SDS011;15976;47.938;7.758;2023-04-06T06:01:12;18.40;;;11.20;;
28844;SDS011;15976;47.938;7.758;2023-04-06T06:06:12;18.60;;;10.05;;
28844;SDS011;15976;47.938;7.758;2023-04-06T06:08:52;16.58;;;9.82;;
28844;SDS011;15976;47.938;7.758;2023-04-06T06:11:19;16.90;;;10.48;;
28844;SDS011;15976;47.938;7.758;2023-04-06T06:13:48;16.05;;;10.25;;
28844;SDS011;15976;47.938;7.758;2023-04-06T06:16:17;15.00;;;9.70;;
28844;SDS011;15976;47.938;7.758;2023-04-06T06:18:47;16.08;;;9.57;;
28844;SDS011;15976;47.938;7.758;2023-04-06T06:21:15;14.80;;;9.77;;
28844;SDS011;15976;47.938;7.758;2023-04-06T06:23:43;13.68;;;9.77;;
28844;SDS011;15976;47.938;7.758;2023-04-06T06:26:14;16.15;;;9.82;;
28844;SDS011;15976;47.938;7.758;2023-04-06T06:28:41;17.05;;;9.82;;
28844;SDS011;15976;47.938;7.758;2023-04-06T06:31:11;20.02;;;10.48;;
28844;SDS011;15976;47.938;7.758;2023-04-06T06:33:39;18.58;;;11.98;;
28844;SDS011;15976;47.938;7.758;2023-04-06T06:36:06;29.08;;;16.70;;
28844;SDS011;15976;47.938;7.758;2023-04-06T06:38:34;23.13;;;12.48;;
28844;SDS011;15976;47.938;7.758;2023-04-06T06:41:01;19.63;;;11.90;;
28844;SDS011;15976;47.938;7.758;2023-04-06T06:43:31;17.40;;;11.15;;
28844;SDS011;15976;47.938;7.758;2023-04-06T06:46:01;16.73;;;11.07;;
28844;SDS011;15976;47.938;7.758;2023-04-06T06:48:28;18.50;;;11.50;;
28844;SDS011;15976;47.938;7.758;2023-04-06T06:50:55;23.08;;;11.30;;
28844;SDS011;15976;47.938;7.758;2023-04-06T06:53:24;15.95;;;11.48;;
28844;SDS011;15976;47.938;7.758;2023-04-06T06:55:51;18.85;;;11.52;;
28844;SDS011;15976;47.938;7.758;2023-04-06T06:58:18;17.25;;;9.93;;
28844;SDS011;15976;47.938;7.758;2023-04-06T07:00:48;16.70;;;9.80;;
28844;SDS011;15976;47.938;7.758;2023-04-06T07:03:16;14.25;;;9.02;;
28844;SDS011;15976;47.938;7.758;2023-04-06T07:05:46;12.13;;;8.88;;
28844;SDS011;15976;47.938;7.758;2023-04-06T07:08:21;13.00;;;8.63;;
28844;SDS011;15976;47.938;7.758;2023-04-06T07:10:50;13.27;;;8.15;;
28844;SDS011;15976;47.938;7.758;2023-04-06T07:13:24;11.25;;;7.95;;
28844;SDS011;15976;47.938;7.758;2023-04-06T07:15:56;16.27;;;8.45;;
28844;SDS011;15976;47.938;7.758;2023-04-06T07:18:26;13.73;;;8.00;;
28844;SDS011;15976;47.938;7.758;2023-04-06T07:21:03;12.70;;;8.50;;
28844;SDS011;15976;47.938;7.758;2023-04-06T07:23:31;17.42;;;9.93;;
28844;SDS011;15976;47.938;7.758;2023-04-06T07:25:58;17.35;;;9.07;;
28844;SDS011;15976;47.938;7.758;2023-04-06T07:28:25;14.45;;;8.85;;
28844;SDS011;15976;47.938;7.758;2023-04-06T07:30:53;15.95;;;10.43;;
28844;SDS011;15976;47.938;7.758;2023-04-06T07:33:21;17.85;;;10.18;;
28844;SDS011;15976;47.938;7.758;2023-04-06T07:35:49;11.65;;;8.80;;
28844;SDS011;15976;47.938;7.758;2023-04-06T07:38:18;16.23;;;10.32;;
28844;SDS011;15976;47.938;7.758;2023-04-06T07:40:45;19.92;;;10.55;;
28844;SDS011;15976;47.938;7.758;2023-04-06T07:43:12;16.73;;;9.57;;
28844;SDS011;15976;47.938;7.758;2023-04-06T07:45:40;15.82;;;11.95;;
28844;SDS011;15976;47.938;7.758;2023-04-06T07:48:07;13.80;;;10.35;;
28844;SDS011;15976;47.938;7.758;2023-04-06T07:50:35;15.60;;;9.45;;
28844;SDS011;15976;47.938;7.758;2023-04-06T07:53:03;16.05;;;9.18;;
28844;SDS011;15976;47.938;7.758;2023-04-06T07:55:31;13.38;;;8.70;;
28844;SDS011;15976;47.938;7.758;2023-04-06T07:58:04;11.60;;;8.32;;
28844;SDS011;15976;47.938;7.758;2023-04-06T08:00:31;13.63;;;8.88;;
28844;SDS011;15976;47.938;7.758;2023-04-06T08:02:58;15.73;;;8.50;;
28844;SDS011;15976;47.938;7.758;2023-04-06T08:05:25;13.57;;;8.23;;
28844;SDS011;15976;47.938;7.758;2023-04-06T08:07:53;15.75;;;9.70;;
28844;SDS011;15976;47.938;7.758;2023-04-06T08:10:21;15.50;;;9.32;;
28844;SDS011;15976;47.938;7.758;2023-04-06T08:12:48;16.02;;;9.07;;
28844;SDS011;15976;47.938;7.758;2023-04-06T08:23:54;10.90;;;5.90;;
28844;SDS011;15976;47.938;7.758;2023-04-06T08:26:21;9.43;;;6.25;;
28844;SDS011;15976;47.938;7.758;2023-04-06T08:28:48;9.20;;;7.05;;
28844;SDS011;15976;47.938;7.758;2023-04-06T08:31:16;10.70;;;6.57;;
28844;SDS011;15976;47.938;7.758;2023-04-06T08:33:43;9.77;;;6.32;;
28844;SDS011;15976;47.938;7.758;2023-04-06T08:36:13;9.93;;;6.78;;
28844;SDS011;15976;47.938;7.758;2023-04-06T08:38:41;10.27;;;7.22;;
28844;SDS011;15976;47.938;7.758;2023-04-06T08:41:12;10.15;;;6.45;;
28844;SDS011;15976;47.938;7.758;2023-04-06T08:43:43;7.85;;;5.97;;
28844;SDS011;15976;47.938;7.758;2023-04-06T08:46:13;9.65;;;6.30;;
28844;SDS011;15976;47.938;7.758;2023-04-06T08:48:42;8.57;;;6.70;;
28844;SDS011;15976;47.938;7.758;2023-04-06T08:51:09;8.20;;;6.15;;
28844;SDS011;15976;47.938;7.758;2023-04-06T08:53:37;9.18;;;6.35;;
28844;SDS011;15976;47.938;7.758;2023-04-06T08:56:04;9.85;;;6.50;;
28844;SDS011;15976;47.938;7.758;2023-04-06T08:58:35;10.45;;;7.30;;
28844;SDS011;15976;47.938;7.758;2023-04-06T09:01:08;9.75;;;7.65;;
28844;SDS011;15976;47.938;7.758;2023-04-06T09:03:38;11.20;;;7.03;;
28844;SDS011;15976;47.938;7.758;2023-04-06T09:06:08;9.80;;;7.43;;
28844;SDS011;15976;47.938;7.758;2023-04-06T09:08:42;10.77;;;7.38;;
28844;SDS011;15976;47.938;7.758;2023-04-06T09:11:10;9.35;;;7.55;;
28844;SDS011;15976;47.938;7.758;2023-04-06T09:13:45;8.73;;;7.00;;
28844;SDS011;15976;47.938;7.758;2023-04-06T09:16:13;13.65;;;8.30;;
28844;SDS011;15976;47.938;7.758;2023-04-06T09:18:44;9.77;;;7.63;;
28844;SDS011;15976;47.938;7.758;2023-04-06T09:21:12;10.43;;;7.90;;
28844;SDS011;15976;47.938;7.758;2023-04-06T09:23:39;13.43;;;7.50;;
28844;SDS011;15976;47.938;7.758;2023-04-06T09:26:07;14.85;;;10.05;;
28844;SDS011;15976;47.938;7.758;2023-04-06T09:28:53;9.73;;;7.53;;
28844;SDS011;15976;47.938;7.758;2023-04-06T09:31:22;11.15;;;6.70;;
28844;SDS011;15976;47.938;7.758;2023-04-06T09:33:50;14.05;;;7.90;;
28844;SDS011;15976;47.938;7.758;2023-04-06T09:36:19;12.10;;;8.05;;
28844;SDS011;15976;47.938;7.758;2023-04-06T09:38:59;8.20;;;6.53;;
28844;SDS011;15976;47.938;7.758;2023-04-06T09:41:28;10.95;;;6.78;;
28844;SDS011;15976;47.938;7.758;2023-04-06T09:44:02;11.95;;;8.13;;
28844;SDS011;15976;47.938;7.758;2023-04-06T09:46:50;9.90;;;7.47;;
28844;SDS011;15976;47.938;7.758;2023-04-06T09:50:15;12.25;;;7.88;;
28844;SDS011;15976;47.938;7.758;2023-04-06T09:52:47;10.05;;;7.45;;
28844;SDS011;15976;47.938;7.758;2023-04-06T09:55:43;9.52;;;6.93;;
28844;SDS011;15976;47.938;7.758;2023-04-06T09:58:12;9.90;;;6.57;;
28844;SDS011;15976;47.938;7.758;2023-04-06T10:01:07;12.10;;;8.05;;
28844;SDS011;15976;47.938;7.758;2023-04-06T10:03:41;11.93;;;7.35;;
28844;SDS011;15976;47.938;7.758;2023-04-06T10:06:18;12.20;;;7.95;;
28844;SDS011;15976;47.938;7.758;2023-04-06T10:08:49;11.13;;;7.60;;
28844;SDS011;15976;47.938;7.758;2023-04-06T10:11:20;12.10;;;8.15;;
28844;SDS011;15976;47.938;7.758;2023-04-06T10:13:48;11.77;;;8.20;;
28844;SDS011;15976;47.938;7.758;2023-04-06T10:16:16;10.07;;;7.47;;
28844;SDS011;15976;47.938;7.758;2023-04-06T10:18:45;14.20;;;8.02;;
28844;SDS011;15976;47.938;7.758;2023-04-06T10:21:16;9.45;;;7.10;;
28844;SDS011;15976;47.938;7.758;2023-04-06T10:23:48;9.82;;;6.38;;
28844;SDS011;15976;47.938;7.758;2023-04-06T10:26:20;8.52;;;5.88;;
28844;SDS011;15976;47.938;7.758;2023-04-06T10:28:48;9.27;;;6.03;;
28844;SDS011;15976;47.938;7.758;2023-04-06T10:31:26;7.43;;;5.60;;
28844;SDS011;15976;47.938;7.758;2023-04-06T10:33:55;21.92;;;16.10;;
28844;SDS011;15976;47.938;7.758;2023-04-06T10:36:27;10.07;;;6.43;;
28844;SDS011;15976;47.938;7.758;2023-04-06T10:39:07;9.82;;;6.45;;
28844;SDS011;15976;47.938;7.758;2023-04-06T10:41:34;8.73;;;5.88;;
28844;SDS011;15976;47.938;7.758;2023-04-06T10:44:06;8.73;;;6.15;;
28844;SDS011;15976;47.938;7.758;2023-04-06T10:46:34;10.75;;;6.45;;
28844;SDS011;15976;47.938;7.758;2023-04-06T10:49:10;7.95;;;5.55;;
28844;SDS011;15976;47.938;7.758;2023-04-06T10:51:41;9.10;;;5.65;;
28844;SDS011;15976;47.938;7.758;2023-04-06T10:54:12;11.82;;;5.45;;
28844;SDS011;15976;47.938;7.758;2023-04-06T10:56:45;6.95;;;4.88;;
28844;SDS011;15976;47.938;7.758;2023-04-06T10:59:12;16.40;;;11.23;;
28844;SDS011;15976;47.938;7.758;2023-04-06T11:01:51;8.45;;;6.15;;
28844;SDS011;15976;47.938;7.758;2023-04-06T11:04:33;7.63;;;5.38;;
28844;SDS011;15976;47.938;7.758;2023-04-06T11:07:22;8.93;;;5.70;;
28844;SDS011;15976;47.938;7.758;2023-04-06T11:10:25;8.15;;;5.63;;
28844;SDS011;15976;47.938;7.758;2023-04-06T11:12:53;8.57;;;5.28;;
28844;SDS011;15976;47.938;7.758;2023-04-06T11:15:21;7.43;;;4.60;;
28844;SDS011;15976;47.938;7.758;2023-04-06T11:17:48;9.07;;;6.07;;
28844;SDS011;15976;47.938;7.758;2023-04-06T11:20:16;8.18;;;6.00;;
28844;SDS011;15976;47.938;7.758;2023-04-06T11:22:51;9.38;;;5.63;;
28844;SDS011;15976;47.938;7.758;2023-04-06T11:25:18;8.10;;;5.40;;
28844;SDS011;15976;47.938;7.758;2023-04-06T11:27:46;6.63;;;4.30;;
28844;SDS011;15976;47.938;7.758;2023-04-06T11:30:14;8.18;;;4.72;;
28844;SDS011;15976;47.938;7.758;2023-04-06T11:32:42;9.00;;;5.32;;
28844;SDS011;15976;47.938;7.758;2023-04-06T11:35:20;9.13;;;6.00;;
28844;SDS011;15976;47.938;7.758;2023-04-06T11:37:49;10.88;;;7.82;;
28844;SDS011;15976;47.938;7.758;2023-04-06T11:40:20;10.90;;;7.38;;
28844;SDS011;15976;47.938;7.758;2023-04-06T11:42:52;6.22;;;4.80;;
28844;SDS011;15976;47.938;7.758;2023-04-06T11:45:20;6.65;;;5.22;;
28844;SDS011;15976;47.938;7.758;2023-04-06T11:47:55;10.45;;;6.28;;
28844;SDS011;15976;47.938;7.758;2023-04-06T11:50:31;12.35;;;6.38;;
28844;SDS011;15976;47.938;7.758;2023-04-06T11:53:02;7.35;;;5.68;;
28844;SDS011;15976;47.938;7.758;2023-04-06T11:55:36;9.20;;;6.25;;
28844;SDS011;15976;47.938;7.758;2023-04-06T11:58:04;10.95;;;7.45;;
28844;SDS011;15976;47.938;7.758;2023-04-06T12:00:32;9.25;;;6.00;;
28844;SDS011;15976;47.938;7.758;2023-04-06T12:03:01;9.80;;;5.88;;
28844;SDS011;15976;47.938;7.758;2023-04-06T12:05:28;10.02;;;6.40;;
28844;SDS011;15976;47.938;7.758;2023-04-06T12:07:55;9.02;;;6.22;;
28844;SDS011;15976;47.938;7.758;2023-04-06T12:10:26;10.95;;;6.60;;
28844;SDS011;15976;47.938;7.758;2023-04-06T12:12:53;9.43;;;5.70;;
28844;SDS011;15976;47.938;7.758;2023-04-06T12:15:20;7.25;;;5.55;;
28844;SDS011;15976;47.938;7.758;2023-04-06T12:17:47;8.35;;;6.10;;
28844;SDS011;15976;47.938;7.758;2023-04-06T12:20:16;8.07;;;5.97;;
28844;SDS011;15976;47.938;7.758;2023-04-06T12:22:51;7.90;;;5.82;;
28844;SDS011;15976;47.938;7.758;2023-04-06T12:25:18;8.05;;;5.32;;
28844;SDS011;15976;47.938;7.758;2023-04-06T12:27:46;8.52;;;5.38;;
28844;SDS011;15976;47.938;7.758;2023-04-06T12:30:13;7.60;;;5.88;;
28844;SDS011;15976;47.938;7.758;2023-04-06T12:32:41;7.97;;;5.47;;
28844;SDS011;15976;47.938;7.758;2023-04-06T12:35:08;8.10;;;6.35;;
28844;SDS011;15976;47.938;7.758;2023-04-06T12:37:35;9.85;;;6.28;;
28844;SDS011;15976;47.938;7.758;2023-04-06T12:40:03;6.70;;;5.32;;
28844;SDS011;15976;47.938;7.758;2023-04-06T12:42:30;9.23;;;5.38;;
28844;SDS011;15976;47.938;7.758;2023-04-06T12:44:57;9.02;;;6.20;;
28844;SDS011;15976;47.938;7.758;2023-04-06T12:47:25;8.68;;;5.82;;
28844;SDS011;15976;47.938;7.758;2023-04-06T12:49:53;9.23;;;5.75;;
28844;SDS011;15976;47.938;7.758;2023-04-06T12:52:21;15.70;;;8.63;;
28844;SDS011;15976;47.938;7.758;2023-04-06T12:54:48;8.73;;;5.35;;
28844;SDS011;15976;47.938;7.758;2023-04-06T12:57:16;9.32;;;6.45;;
28844;SDS011;15976;47.938;7.758;2023-04-06T12:59:43;8.57;;;5.55;;
28844;SDS011;15976;47.938;7.758;2023-04-06T13:02:11;10.15;;;5.50;;
28844;SDS011;15976;47.938;7.758;2023-04-06T13:04:38;11.60;;;6.05;;
28844;SDS011;15976;47.938;7.758;2023-04-06T13:07:05;7.43;;;5.05;;
28844;SDS011;15976;47.938;7.758;2023-04-06T13:09:32;8.77;;;4.57;;
28844;SDS011;15976;47.938;7.758;2023-04-06T13:11:59;10.88;;;6.18;;
28844;SDS011;15976;47.938;7.758;2023-04-06T13:14:27;9.02;;;5.75;;
28844;SDS011;15976;47.938;7.758;2023-04-06T13:16:54;7.53;;;4.78;;
28844;SDS011;15976;47.938;7.758;2023-04-06T13:19:21;10.90;;;6.65;;
28844;SDS011;15976;47.938;7.758;2023-04-06T13:21:48;7.97;;;5.47;;
28844;SDS011;15976;47.938;7.758;2023-04-06T13:24:16;11.45;;;6.15;;
28844;SDS011;15976;47.938;7.758;2023-04-06T13:26:43;8.88;;;6.18;;
28844;SDS011;15976;47.938;7.758;2023-04-06T13:29:10;9.90;;;6.35;;
28844;SDS011;15976;47.938;7.758;2023-04-06T13:31:37;12.38;;;7.32;;
28844;SDS011;15976;47.938;7.758;2023-04-06T13:34:05;11.57;;;6.35;;
28844;SDS011;15976;47.938;7.758;2023-04-06T13:36:32;8.38;;;5.53;;
28844;SDS011;15976;47.938;7.758;2023-04-06T13:38:59;11.00;;;5.40;;
28844;SDS011;15976;47.938;7.758;2023-04-06T13:41:26;7.00;;;5.10;;
28844;SDS011;15976;47.938;7.758;2023-04-06T13:43:53;10.57;;;6.97;;
28844;SDS011;15976;47.938;7.758;2023-04-06T13:46:21;7.80;;;5.32;;
28844;SDS011;15976;47.938;7.758;2023-04-06T13:48:50;8.70;;;5.80;;
28844;SDS011;15976;47.938;7.758;2023-04-06T13:51:17;7.88;;;5.50;;
28844;SDS011;15976;47.938;7.758;2023-04-06T13:53:44;8.02;;;5.22;;
28844;SDS011;15976;47.938;7.758;2023-04-06T13:56:12;9.43;;;5.35;;
28844;SDS011;15976;47.938;7.758;2023-04-06T13:58:39;9.25;;;5.97;;
28844;SDS011;15976;47.938;7.758;2023-04-06T14:01:07;8.07;;;4.97;;
28844;SDS011;15976;47.938;7.758;2023-04-06T14:03:37;7.53;;;5.53;;
28844;SDS011;15976;47.938;7.758;2023-04-06T14:06:09;7.22;;;5.13;;
28844;SDS011;15976;47.938;7.758;2023-04-06T14:08:56;7.97;;;5.28;;
28844;SDS011;15976;47.938;7.758;2023-04-06T14:11:23;8.07;;;5.63;;
28844;SDS011;15976;47.938;7.758;2023-04-06T14:13:50;8.85;;;5.32;;
28844;SDS011;15976;47.938;7.758;2023-04-06T14:16:17;7.63;;;4.75;;
28844;SDS011;15976;47.938;7.758;2023-04-06T14:18:46;8.75;;;5.90;;
28844;SDS011;15976;47.938;7.758;2023-04-06T14:21:13;23.40;;;14.18;;
28844;SDS011;15976;47.938;7.758;2023-04-06T14:23:41;11.93;;;5.13;;
28844;SDS011;15976;47.938;7.758;2023-04-06T14:26:09;11.73;;;6.43;;
28844;SDS011;15976;47.938;7.758;2023-04-06T14:28:36;8.82;;;5.45;;
28844;SDS011;15976;47.938;7.758;2023-04-06T14:31:09;12.82;;;8.57;;
28844;SDS011;15976;47.938;7.758;2023-04-06T14:33:41;14.45;;;6.65;;
28844;SDS011;15976;47.938;7.758;2023-04-06T14:36:09;8.70;;;5.95;;
28844;SDS011;15976;47.938;7.758;2023-04-06T14:38:37;11.30;;;5.88;;
28844;SDS011;15976;47.938;7.758;2023-04-06T14:41:05;8.35;;;6.25;;
28844;SDS011;15976;47.938;7.758;2023-04-06T14:43:34;8.82;;;5.50;;
28844;SDS011;15976;47.938;7.758;2023-04-06T14:46:01;9.98;;;6.00;;
28844;SDS011;15976;47.938;7.758;2023-04-06T14:48:28;12.30;;;6.35;;
28844;SDS011;15976;47.938;7.758;2023-04-06T14:50:56;11.10;;;6.40;;
28844;SDS011;15976;47.938;7.758;2023-04-06T14:53:23;9.57;;;5.88;;
28844;SDS011;15976;47.938;7.758;2023-04-06T14:55:51;8.50;;;5.47;;
28844;SDS011;15976;47.938;7.758;2023-04-06T14:58:19;9.60;;;6.03;;
28844;SDS011;15976;47.938;7.758;2023-04-06T15:00:47;9.68;;;5.60;;
28844;SDS011;15976;47.938;7.758;2023-04-06T15:03:14;11.88;;;6.15;;
28844;SDS011;15976;47.938;7.758;2023-04-06T15:05:42;11.02;;;7.43;;
28844;SDS011;15976;47.938;7.758;2023-04-06T15:08:12;9.07;;;6.47;;
28844;SDS011;15976;47.938;7.758;2023-04-06T15:11:04;13.88;;;6.15;;
28844;SDS011;15976;47.938;7.758;2023-04-06T15:13:36;9.35;;;5.72;;